Time;durP1;ratioP1;P1;durP2;ratioP2;P2;SDS_P1;SDS_P2;PMS_P1;PMS_P2;Temp;Humidity;BMP_temperature;BMP_pressure;BME280_temperature;BME280_humidity;BME280_pressure;Samples;Min_cycle;Max_cycle;Signal;HPM_P1;HPM_P2
2021/09/30 00:00:22;;;;;;;4.95;3.85;;;;;;;;;;5043795;28;20107;-79
2021/09/30 00:02:49;;;;;;;6.10;3.53;;;;;;;;;;5067592;28;20477;-79
2021/09/30 00:05:16;;;;;;;5.03;3.53;;;;;;;;;;5071319;28;20064;-79
2021/09/30 00:07:42;;;;;;;5.10;3.40;;;;;;;;;;5063929;28;20067;-78
2021/09/30 00:10:10;;;;;;;4.43;3.40;;;;;;;;;;5064831;28;20086;-79
2021/09/30 00:12:42;;;;;;;4.85;3.92;;;;;;;;;;5060761;28;20057;-80
2021/09/30 00:15:14;;;;;;;6.85;3.70;;;;;;;;;;5083307;28;20060;-79
2021/09/30 00:42:07;;;;;;;4.78;3.35;;;;;;;;;;5079390;28;20185;-79
2021/09/30 01:40:12;;;;;;;3.65;2.50;;;;;;;;;;5085619;28;20449;-79
2021/09/30 02:21:40;;;;;;;2.00;1.40;;;;;;;;;;5072841;28;20068;-81
2021/09/30 02:59:39;;;;;;;2.42;1.42;;;;;;;;;;5073079;28;20086;-82
2021/09/30 03:02:06;;;;;;;2.15;1.40;;;;;;;;;;5077746;28;20124;-82
2021/09/30 03:04:33;;;;;;;3.00;1.50;;;;;;;;;;5077435;28;20104;-82
2021/09/30 03:07:00;;;;;;;2.63;1.60;;;;;;;;;;5063350;28;20048;-82
2021/09/30 03:09:38;;;;;;;2.30;1.70;;;;;;;;;;5083336;28;20044;-82
2021/09/30 03:12:08;;;;;;;2.53;1.50;;;;;;;;;;5066714;28;20424;-81
2021/09/30 03:14:40;;;;;;;2.25;1.65;;;;;;;;;;5063462;28;20032;-81
2021/09/30 03:17:07;;;;;;;2.33;1.50;;;;;;;;;;5082855;27;20121;-81
2021/09/30 03:20:28;;;;;;;2.40;1.40;;;;;;;;;;5043729;28;20447;-82
2021/09/30 03:22:21;;;;;;;4.00;1.73;;;;;;;;;;5076656;28;20121;-81
2021/09/30 03:24:49;;;;;;;2.45;1.50;;;;;;;;;;5085372;28;20052;-81
2021/09/30 03:27:16;;;;;;;2.47;1.70;;;;;;;;;;5085100;28;20055;-82
2021/09/30 03:29:42;;;;;;;2.85;1.50;;;;;;;;;;5079202;28;20071;-81
2021/09/30 03:32:09;;;;;;;2.72;1.83;;;;;;;;;;5061817;28;20048;-82
2021/09/30 03:34:36;;;;;;;3.20;1.75;;;;;;;;;;5057645;28;20047;-82
2021/09/30 03:37:03;;;;;;;2.10;1.38;;;;;;;;;;5063063;28;20060;-82
2021/09/30 03:39:29;;;;;;;2.47;1.50;;;;;;;;;;5070237;28;20060;-83
2021/09/30 03:41:56;;;;;;;2.08;1.45;;;;;;;;;;5065850;28;20040;-82
2021/09/30 03:44:23;;;;;;;3.03;1.60;;;;;;;;;;5066176;28;20033;-81
2021/09/30 03:46:52;;;;;;;2.50;1.50;;;;;;;;;;5051024;28;20052;-81
2021/09/30 03:49:38;;;;;;;1.98;1.38;;;;;;;;;;5065789;28;20056;-83
2021/09/30 03:52:18;;;;;;;2.47;1.60;;;;;;;;;;5074849;28;20071;-82
2021/09/30 03:55:16;;;;;;;4.13;1.55;;;;;;;;;;5082690;28;20436;-82
2021/09/30 04:00:22;;;;;;;2.10;1.40;;;;;;;;;;5073189;28;20062;-81
2021/09/30 04:02:49;;;;;;;1.48;1.23;;;;;;;;;;5044793;28;20068;-81
2021/09/30 04:05:15;;;;;;;2.53;1.50;;;;;;;;;;5067517;28;20059;-81
2021/09/30 04:07:41;;;;;;;1.85;1.40;;;;;;;;;;5072674;28;20134;-82
2021/09/30 04:10:08;;;;;;;3.10;1.88;;;;;;;;;;5074296;28;20063;-82
2021/09/30 04:12:35;;;;;;;2.20;1.52;;;;;;;;;;5077423;28;20109;-81
2021/09/30 04:15:01;;;;;;;1.77;1.13;;;;;;;;;;5048808;28;20036;-81
2021/09/30 04:17:28;;;;;;;2.45;1.52;;;;;;;;;;5045853;28;20090;-81
2021/09/30 04:19:54;;;;;;;2.25;1.40;;;;;;;;;;5057542;28;20049;-80
2021/09/30 04:22:20;;;;;;;2.65;1.15;;;;;;;;;;5068159;28;20507;-82
2021/09/30 04:24:48;;;;;;;2.28;1.38;;;;;;;;;;5075728;28;20160;-83
2021/09/30 04:27:15;;;;;;;2.10;1.50;;;;;;;;;;5074105;28;20560;-82
2021/09/30 04:29:41;;;;;;;1.90;1.30;;;;;;;;;;5078299;28;20499;-80
2021/09/30 04:32:08;;;;;;;2.47;1.40;;;;;;;;;;5075800;28;20067;-80
2021/09/30 04:34:34;;;;;;;2.65;1.40;;;;;;;;;;5083235;28;20056;-81
2021/09/30 04:37:01;;;;;;;2.70;1.60;;;;;;;;;;5065734;28;20661;-81
2021/09/30 04:39:27;;;;;;;2.33;1.40;;;;;;;;;;5081819;28;20043;-81
2021/09/30 04:41:54;;;;;;;2.00;1.33;;;;;;;;;;5081201;28;20060;-81
2021/09/30 04:44:23;;;;;;;2.88;1.50;;;;;;;;;;5067096;28;20117;-81
2021/09/30 04:46:50;;;;;;;2.15;1.55;;;;;;;;;;5081230;28;20415;-80
2021/09/30 04:49:16;;;;;;;1.88;1.40;;;;;;;;;;5063427;28;20579;-80
2021/09/30 04:51:43;;;;;;;2.50;1.30;;;;;;;;;;5085072;28;20054;-80
2021/09/30 04:54:09;;;;;;;2.25;1.30;;;;;;;;;;5035985;28;20043;-80
2021/09/30 04:56:36;;;;;;;1.83;1.20;;;;;;;;;;5078294;28;20060;-81
2021/09/30 04:59:03;;;;;;;4.30;1.48;;;;;;;;;;5051802;28;20506;-80
2021/09/30 05:01:30;;;;;;;3.75;1.40;;;;;;;;;;5056048;28;20086;-79
2021/09/30 05:03:56;;;;;;;1.50;1.17;;;;;;;;;;5070280;28;20067;-80
2021/09/30 05:06:23;;;;;;;2.25;1.40;;;;;;;;;;5074189;28;20550;-80
2021/09/30 05:08:50;;;;;;;2.97;1.60;;;;;;;;;;5067266;28;20125;-80
2021/09/30 05:11:17;;;;;;;2.33;1.30;;;;;;;;;;5066162;28;20060;-81
2021/09/30 05:13:44;;;;;;;3.17;1.40;;;;;;;;;;5065427;28;20120;-80
2021/09/30 05:16:12;;;;;;;2.10;1.17;;;;;;;;;;5070948;28;20063;-81
2021/09/30 05:18:50;;;;;;;2.90;1.55;;;;;;;;;;5046810;28;20037;-81
2021/09/30 05:21:16;;;;;;;2.60;1.40;;;;;;;;;;5071506;28;21346;-80
2021/09/30 05:23:43;;;;;;;2.15;1.50;;;;;;;;;;5064619;28;20454;-81
2021/09/30 05:26:09;;;;;;;2.42;1.20;;;;;;;;;;5075569;28;20033;-80
2021/09/30 05:28:36;;;;;;;2.53;1.55;;;;;;;;;;5044324;28;20045;-81
2021/09/30 05:31:03;;;;;;;1.55;1.17;;;;;;;;;;5063862;28;20028;-80
2021/09/30 05:33:29;;;;;;;2.03;1.25;;;;;;;;;;5063652;28;20111;-80
2021/09/30 05:35:57;;;;;;;2.83;1.40;;;;;;;;;;5072602;28;20040;-81
2021/09/30 05:38:23;;;;;;;2.10;1.27;;;;;;;;;;5086160;28;20058;-80
2021/09/30 05:40:50;;;;;;;2.08;1.02;;;;;;;;;;5080853;28;20113;-81
2021/09/30 05:43:27;;;;;;;2.42;1.48;;;;;;;;;;5068154;28;20028;-81
2021/09/30 05:45:58;;;;;;;6.20;1.27;;;;;;;;;;5086909;28;20063;-80
2021/09/30 05:48:25;;;;;;;2.95;1.48;;;;;;;;;;5063500;28;20712;-81
2021/09/30 05:50:52;;;;;;;1.98;1.25;;;;;;;;;;5085768;28;20125;-81
2021/09/30 05:53:19;;;;;;;1.85;1.15;;;;;;;;;;5083180;28;20505;-81
2021/09/30 05:55:46;;;;;;;1.90;1.05;;;;;;;;;;5084876;28;20032;-79
2021/09/30 05:58:12;;;;;;;2.08;1.25;;;;;;;;;;5087932;28;20160;-80
2021/09/30 06:14:07;;;;;;;2.45;1.13;;;;;;;;;;5058788;28;20094;-79
2021/09/30 06:16:44;;;;;;;2.20;1.20;;;;;;;;;;5066435;28;20489;-79
2021/09/30 06:19:11;;;;;;;1.70;1.10;;;;;;;;;;5082578;28;21372;-79
2021/09/30 06:21:37;;;;;;;1.95;1.17;;;;;;;;;;5087284;28;20456;-79
2021/09/30 06:24:04;;;;;;;1.63;0.98;;;;;;;;;;5083352;28;21301;-79
2021/09/30 06:26:30;;;;;;;2.03;0.95;;;;;;;;;;5086882;28;20036;-79
2021/09/30 06:28:57;;;;;;;2.00;1.00;;;;;;;;;;5080120;28;20060;-80
2021/09/30 06:31:23;;;;;;;3.28;1.30;;;;;;;;;;5083159;28;20063;-80
2021/09/30 06:33:49;;;;;;;1.35;0.98;;;;;;;;;;5084723;28;20109;-80
2021/09/30 06:36:16;;;;;;;1.35;0.88;;;;;;;;;;5083198;28;20037;-83
2021/09/30 06:38:42;;;;;;;1.25;0.80;;;;;;;;;;5081511;28;20089;-83
2021/09/30 06:41:09;;;;;;;1.17;0.73;;;;;;;;;;5082792;28;21004;-83
2021/09/30 06:43:36;;;;;;;1.15;0.90;;;;;;;;;;5069060;28;20128;-83
2021/09/30 06:46:02;;;;;;;1.48;0.80;;;;;;;;;;5084207;28;20059;-82
2021/09/30 06:48:28;;;;;;;0.90;0.73;;;;;;;;;;5064010;28;20480;-83
2021/09/30 06:50:55;;;;;;;2.00;0.82;;;;;;;;;;5067800;28;20060;-83
2021/09/30 06:53:22;;;;;;;0.95;0.70;;;;;;;;;;5065378;28;20056;-83
2021/09/30 06:55:48;;;;;;;3.45;0.63;;;;;;;;;;5079775;28;20110;-84
2021/09/30 06:58:15;;;;;;;1.77;0.80;;;;;;;;;;5059032;28;20056;-83
2021/09/30 07:00:42;;;;;;;1.05;0.70;;;;;;;;;;5066295;28;20037;-84
2021/09/30 07:03:08;;;;;;;1.60;0.80;;;;;;;;;;5076527;28;20089;-83
2021/09/30 07:05:35;;;;;;;1.13;0.80;;;;;;;;;;5048891;28;20029;-83
2021/09/30 07:08:02;;;;;;;1.27;0.75;;;;;;;;;;5057386;28;20118;-83
2021/09/30 07:10:29;;;;;;;2.08;1.05;;;;;;;;;;5045698;28;20097;-84
2021/09/30 07:12:57;;;;;;;1.30;0.65;;;;;;;;;;5065728;28;20028;-84
2021/09/30 07:15:23;;;;;;;1.55;0.80;;;;;;;;;;5071059;28;20042;-83
2021/09/30 07:17:50;;;;;;;2.78;0.85;;;;;;;;;;5051214;28;20056;-83
2021/09/30 07:20:16;;;;;;;1.10;0.70;;;;;;;;;;5048969;28;20057;-83
2021/09/30 07:22:43;;;;;;;1.35;0.70;;;;;;;;;;5082327;28;20124;-83
2021/09/30 07:25:09;;;;;;;1.13;0.60;;;;;;;;;;5074936;28;20686;-83
2021/09/30 07:27:36;;;;;;;0.95;0.60;;;;;;;;;;5073702;28;20063;-83
2021/09/30 07:30:03;;;;;;;1.63;0.90;;;;;;;;;;5082264;28;20055;-83
2021/09/30 07:32:30;;;;;;;1.88;0.70;;;;;;;;;;5080982;28;20063;-83
2021/09/30 07:34:58;;;;;;;1.45;0.80;;;;;;;;;;5063585;28;20082;-83
2021/09/30 07:37:24;;;;;;;1.50;0.80;;;;;;;;;;5061359;28;20058;-82
2021/09/30 07:39:51;;;;;;;1.80;0.70;;;;;;;;;;5086278;28;20058;-82
2021/09/30 07:42:17;;;;;;;1.23;0.80;;;;;;;;;;5065304;28;20516;-83
2021/09/30 07:44:43;;;;;;;0.90;0.60;;;;;;;;;;5081793;28;20059;-82
2021/09/30 07:47:10;;;;;;;1.88;0.70;;;;;;;;;;5061182;28;20112;-83
2021/09/30 07:49:36;;;;;;;0.93;0.60;;;;;;;;;;5064594;28;20067;-83
2021/09/30 07:52:03;;;;;;;0.90;0.60;;;;;;;;;;5075286;28;20059;-83
2021/09/30 07:54:29;;;;;;;0.77;0.60;;;;;;;;;;5065332;28;20056;-83
2021/09/30 07:56:56;;;;;;;1.85;0.77;;;;;;;;;;5081303;28;20082;-85
2021/09/30 07:59:22;;;;;;;1.98;0.90;;;;;;;;;;5081369;28;20563;-84
2021/09/30 08:01:49;;;;;;;1.40;0.75;;;;;;;;;;5080444;28;20064;-85
2021/09/30 08:04:15;;;;;;;1.00;0.70;;;;;;;;;;5080018;28;20064;-84
2021/09/30 08:06:42;;;;;;;0.82;0.52;;;;;;;;;;5064963;28;20507;-84
2021/09/30 08:09:08;;;;;;;1.10;0.70;;;;;;;;;;5060085;28;20606;-84
2021/09/30 08:11:35;;;;;;;2.40;0.60;;;;;;;;;;5083205;28;20036;-83
2021/09/30 08:14:02;;;;;;;1.08;0.70;;;;;;;;;;5081246;28;20101;-84
2021/09/30 08:16:28;;;;;;;1.13;0.73;;;;;;;;;;5085414;28;20040;-84
2021/09/30 08:18:56;;;;;;;2.10;0.70;;;;;;;;;;5082769;28;20051;-84
2021/09/30 08:21:23;;;;;;;1.25;0.68;;;;;;;;;;5083199;28;20358;-84
2021/09/30 08:23:49;;;;;;;1.92;0.60;;;;;;;;;;5064795;28;20067;-84
2021/09/30 08:26:19;;;;;;;1.27;0.52;;;;;;;;;;5082329;28;20060;-83
2021/09/30 08:28:48;;;;;;;1.00;0.60;;;;;;;;;;5066673;28;20048;-83
2021/09/30 08:31:15;;;;;;;0.82;0.52;;;;;;;;;;5081353;28;20581;-83
2021/09/30 08:33:42;;;;;;;1.55;0.47;;;;;;;;;;5084748;28;20036;-84
2021/09/30 08:36:12;;;;;;;1.27;0.70;;;;;;;;;;5066320;28;20028;-83
2021/09/30 08:38:39;;;;;;;1.55;0.75;;;;;;;;;;5086914;28;20028;-84
2021/09/30 08:41:05;;;;;;;1.38;0.65;;;;;;;;;;5065447;28;20064;-84
2021/09/30 08:43:32;;;;;;;2.45;0.90;;;;;;;;;;5065995;28;20067;-84
2021/09/30 08:45:59;;;;;;;0.70;0.50;;;;;;;;;;5084557;28;20062;-84
2021/09/30 08:48:25;;;;;;;1.10;0.60;;;;;;;;;;5056013;28;20557;-85
2021/09/30 08:50:53;;;;;;;1.35;0.50;;;;;;;;;;5085137;28;20039;-84
2021/09/30 08:53:20;;;;;;;1.48;0.63;;;;;;;;;;5080459;28;20100;-85
2021/09/30 08:55:46;;;;;;;0.98;0.52;;;;;;;;;;5083057;28;20071;-84
2021/09/30 08:58:13;;;;;;;1.20;0.60;;;;;;;;;;5082556;28;20515;-84
2021/09/30 09:00:42;;;;;;;0.75;0.40;;;;;;;;;;5058392;28;20056;-85
2021/09/30 09:03:08;;;;;;;0.80;0.50;;;;;;;;;;5048572;28;20067;-84
2021/09/30 09:05:39;;;;;;;0.77;0.50;;;;;;;;;;5066025;28;20488;-84
2021/09/30 09:08:07;;;;;;;0.85;0.60;;;;;;;;;;5066442;28;20060;-84
2021/09/30 09:10:35;;;;;;;0.80;0.50;;;;;;;;;;5082114;28;20080;-84
2021/09/30 09:13:01;;;;;;;1.70;0.63;;;;;;;;;;5084477;28;20075;-84
2021/09/30 09:15:35;;;;;;;0.93;0.40;;;;;;;;;;5070174;28;20109;-84
2021/09/30 09:18:12;;;;;;;0.85;0.40;;;;;;;;;;5067479;28;20564;-85
2021/09/30 09:20:38;;;;;;;0.82;0.50;;;;;;;;;;5069450;28;21272;-83
2021/09/30 09:23:04;;;;;;;0.65;0.40;;;;;;;;;;5077673;28;20101;-83
2021/09/30 09:25:31;;;;;;;0.43;0.32;;;;;;;;;;5087056;28;20080;-82
2021/09/30 09:27:58;;;;;;;0.55;0.30;;;;;;;;;;5065892;28;20102;-82
2021/09/30 09:30:26;;;;;;;0.57;0.30;;;;;;;;;;5064158;28;20078;-82
2021/09/30 09:33:02;;;;;;;0.40;0.40;;;;;;;;;;5082784;28;20077;-82
2021/09/30 09:35:28;;;;;;;0.45;0.40;;;;;;;;;;5070677;28;20519;-83
2021/09/30 09:38:02;;;;;;;0.60;0.40;;;;;;;;;;5084561;27;20036;-83
2021/09/30 09:40:28;;;;;;;0.82;0.30;;;;;;;;;;5070692;28;20051;-82
2021/09/30 09:42:55;;;;;;;1.33;0.50;;;;;;;;;;5074331;28;20486;-83
2021/09/30 09:45:21;;;;;;;0.88;0.55;;;;;;;;;;5089014;28;20484;-83
2021/09/30 09:47:47;;;;;;;0.70;0.38;;;;;;;;;;5085622;28;20796;-83
2021/09/30 09:50:17;;;;;;;0.70;0.50;;;;;;;;;;5071017;28;20035;-84
2021/09/30 09:52:54;;;;;;;0.60;0.32;;;;;;;;;;5084496;28;20028;-84
2021/09/30 09:55:22;;;;;;;0.98;0.60;;;;;;;;;;5077956;28;20131;-82
2021/09/30 09:58:05;;;;;;;1.63;0.70;;;;;;;;;;5066801;28;20121;-81
2021/09/30 10:00:36;;;;;;;0.77;0.30;;;;;;;;;;5086535;28;20457;-85
2021/09/30 10:03:14;;;;;;;0.50;0.40;;;;;;;;;;5069306;28;20229;-83
2021/09/30 10:05:41;;;;;;;0.68;0.40;;;;;;;;;;5069182;28;20467;-83
2021/09/30 10:08:09;;;;;;;1.45;0.45;;;;;;;;;;5062606;28;20496;-80
2021/09/30 10:10:36;;;;;;;0.40;0.30;;;;;;;;;;5084942;28;20040;-83
2021/09/30 10:13:03;;;;;;;0.65;0.38;;;;;;;;;;5084936;28;20619;-82
2021/09/30 10:15:29;;;;;;;0.75;0.60;;;;;;;;;;5059316;28;20052;-82
2021/09/30 10:17:56;;;;;;;0.52;0.40;;;;;;;;;;5047567;28;20495;-83
2021/09/30 10:20:22;;;;;;;0.82;0.40;;;;;;;;;;5049548;28;20090;-83
2021/09/30 10:22:58;;;;;;;0.73;0.43;;;;;;;;;;5045033;28;20864;-82
2021/09/30 10:25:32;;;;;;;0.40;0.40;;;;;;;;;;5060125;28;20044;-82
2021/09/30 10:27:59;;;;;;;0.70;0.32;;;;;;;;;;5055529;28;20157;-83
2021/09/30 10:30:37;;;;;;;0.75;0.40;;;;;;;;;;5061617;28;20056;-82
2021/09/30 10:33:04;;;;;;;1.17;0.40;;;;;;;;;;5046952;28;20048;-83
2021/09/30 10:35:38;;;;;;;0.63;0.35;;;;;;;;;;5068256;28;20066;-83
2021/09/30 10:38:25;;;;;;;0.60;0.50;;;;;;;;;;5084695;28;20507;-81
2021/09/30 10:41:00;;;;;;;2.03;0.40;;;;;;;;;;5047384;28;20040;-86
2021/09/30 10:43:31;;;;;;;1.55;0.50;;;;;;;;;;5056058;28;20068;-83
2021/09/30 10:45:58;;;;;;;1.50;0.47;;;;;;;;;;5056392;28;20402;-82
2021/09/30 10:48:24;;;;;;;0.85;0.50;;;;;;;;;;5063626;28;20025;-83
2021/09/30 10:50:51;;;;;;;0.45;0.32;;;;;;;;;;5052501;28;20520;-81
2021/09/30 10:53:17;;;;;;;0.57;0.45;;;;;;;;;;5049177;28;20106;-81
2021/09/30 10:55:44;;;;;;;0.68;0.40;;;;;;;;;;5075486;28;20040;-81
2021/09/30 10:58:23;;;;;;;0.60;0.30;;;;;;;;;;5076320;28;20101;-82
2021/09/30 11:00:55;;;;;;;1.60;0.40;;;;;;;;;;5069306;28;20024;-82
2021/09/30 11:03:23;;;;;;;0.65;0.30;;;;;;;;;;5068597;28;20044;-82
2021/09/30 11:06:16;;;;;;;0.40;0.30;;;;;;;;;;5083215;28;20082;-82
2021/09/30 11:08:47;;;;;;;1.15;0.40;;;;;;;;;;5061915;28;20056;-82
2021/09/30 11:11:16;;;;;;;0.90;0.40;;;;;;;;;;5065848;28;20047;-82
2021/09/30 11:13:47;;;;;;;0.68;0.50;;;;;;;;;;5065113;28;20086;-82
2021/09/30 11:16:16;;;;;;;2.70;0.50;;;;;;;;;;5083328;28;20056;-82
2021/09/30 11:18:52;;;;;;;0.57;0.40;;;;;;;;;;5061304;28;20118;-82
2021/09/30 11:21:30;;;;;;;1.23;0.40;;;;;;;;;;5055122;28;21114;-82
2021/09/30 11:24:00;;;;;;;0.43;0.30;;;;;;;;;;5047095;28;20085;-82
2021/09/30 11:26:28;;;;;;;1.10;0.50;;;;;;;;;;5053678;28;20052;-82
2021/09/30 11:28:55;;;;;;;0.60;0.40;;;;;;;;;;5081451;28;20104;-82
2021/09/30 11:31:29;;;;;;;0.68;0.40;;;;;;;;;;5062615;28;20060;-82
2021/09/30 11:33:59;;;;;;;0.45;0.30;;;;;;;;;;5062919;28;20052;-82
2021/09/30 11:36:30;;;;;;;0.75;0.40;;;;;;;;;;5059537;28;20344;-82
2021/09/30 11:38:57;;;;;;;0.47;0.30;;;;;;;;;;5060776;28;20506;-82
2021/09/30 11:41:28;;;;;;;1.48;0.60;;;;;;;;;;5086146;28;20051;-83
2021/09/30 11:43:54;;;;;;;0.65;0.40;;;;;;;;;;5064633;28;20036;-82
2021/09/30 11:46:28;;;;;;;1.00;0.50;;;;;;;;;;5065249;28;20116;-82
2021/09/30 11:48:58;;;;;;;1.73;0.50;;;;;;;;;;5066764;28;20056;-82
2021/09/30 11:51:30;;;;;;;0.75;0.30;;;;;;;;;;5067658;28;20056;-81
2021/09/30 11:53:57;;;;;;;0.47;0.28;;;;;;;;;;5078123;28;20067;-82
2021/09/30 11:56:23;;;;;;;0.30;0.30;;;;;;;;;;5067512;28;20064;-82
2021/09/30 11:59:02;;;;;;;0.60;0.30;;;;;;;;;;5080512;28;20039;-82
2021/09/30 12:01:47;;;;;;;0.50;0.32;;;;;;;;;;5077778;28;20552;-82
2021/09/30 12:04:14;;;;;;;0.60;0.40;;;;;;;;;;5064217;28;21690;-82
2021/09/30 12:06:41;;;;;;;0.90;0.40;;;;;;;;;;5067508;28;20529;-79
2021/09/30 12:09:08;;;;;;;1.67;0.43;;;;;;;;;;5064821;28;20125;-81
2021/09/30 12:11:36;;;;;;;0.70;0.40;;;;;;;;;;5065964;28;20036;-81
2021/09/30 12:14:05;;;;;;;0.88;0.43;;;;;;;;;;5065634;28;20064;-82
2021/09/30 12:16:32;;;;;;;1.08;0.60;;;;;;;;;;5078785;28;20118;-82
2021/09/30 12:19:02;;;;;;;1.30;0.50;;;;;;;;;;5060691;28;20060;-82
2021/09/30 12:21:41;;;;;;;0.88;0.40;;;;;;;;;;5084543;28;20063;-82
2021/09/30 12:24:08;;;;;;;1.08;0.50;;;;;;;;;;5078735;28;20086;-82
2021/09/30 12:26:35;;;;;;;1.50;0.65;;;;;;;;;;5060349;28;20078;-82
2021/09/30 12:29:02;;;;;;;1.17;0.50;;;;;;;;;;5066485;28;20106;-82
2021/09/30 12:31:31;;;;;;;1.63;0.60;;;;;;;;;;5074565;28;20033;-84
2021/09/30 12:33:58;;;;;;;1.35;0.40;;;;;;;;;;5066119;28;20064;-82
2021/09/30 12:36:24;;;;;;;0.38;0.30;;;;;;;;;;5086262;28;20470;-82
2021/09/30 12:38:58;;;;;;;0.80;0.50;;;;;;;;;;5059050;28;20060;-82
2021/09/30 12:41:26;;;;;;;1.08;0.38;;;;;;;;;;5079734;28;20086;-81
2021/09/30 12:43:53;;;;;;;0.68;0.30;;;;;;;;;;5057444;28;20067;-82
2021/09/30 12:46:20;;;;;;;0.98;0.40;;;;;;;;;;5084295;28;20404;-84
2021/09/30 12:48:49;;;;;;;0.60;0.40;;;;;;;;;;5084892;28;20109;-82
2021/09/30 12:51:23;;;;;;;0.68;0.35;;;;;;;;;;5066687;28;20032;-82
2021/09/30 12:53:50;;;;;;;0.93;0.50;;;;;;;;;;5063062;28;20052;-81
2021/09/30 12:56:19;;;;;;;0.43;0.30;;;;;;;;;;5079755;28;20642;-81
2021/09/30 12:58:47;;;;;;;0.88;0.40;;;;;;;;;;5068133;28;20549;-82
2021/09/30 13:01:28;;;;;;;0.70;0.40;;;;;;;;;;5074032;28;20047;-81
2021/09/30 13:04:09;;;;;;;0.68;0.38;;;;;;;;;;5074811;28;20078;-82
2021/09/30 13:06:35;;;;;;;;;;;;;;;;;;5062993;28;20082;-81
2021/09/30 13:09:02;;;;;;;0.82;0.70;;;;;;;;;;5065280;28;20009;-81
2021/09/30 13:11:30;;;;;;;1.83;0.47;;;;;;;;;;5060627;28;20057;-80
2021/09/30 13:14:15;;;;;;;0.57;0.40;;;;;;;;;;5072110;28;20484;-80
2021/09/30 13:16:43;;;;;;;1.98;0.55;;;;;;;;;;5051733;28;20032;-81
2021/09/30 13:19:10;;;;;;;0.70;0.40;;;;;;;;;;5079982;28;20055;-82
2021/09/30 13:21:55;;;;;;;1.00;0.43;;;;;;;;;;5080207;28;20079;-81
2021/09/30 13:24:21;;;;;;;0.77;0.30;;;;;;;;;;5081478;28;20064;-81
2021/09/30 13:26:48;;;;;;;0.38;0.30;;;;;;;;;;5051548;28;20118;-81
2021/09/30 13:29:14;;;;;;;1.38;0.30;;;;;;;;;;5048354;28;20121;-82
2021/09/30 13:31:41;;;;;;;0.68;0.60;;;;;;;;;;5053349;28;20032;-81
2021/09/30 13:34:07;;;;;;;1.85;0.57;;;;;;;;;;5049717;28;20052;-82
2021/09/30 13:36:34;;;;;;;1.30;0.50;;;;;;;;;;5077503;28;20064;-82
2021/09/30 13:39:01;;;;;;;0.90;0.40;;;;;;;;;;5050836;28;20373;-82
2021/09/30 13:41:27;;;;;;;0.88;0.40;;;;;;;;;;5065737;28;20033;-81
2021/09/30 13:43:54;;;;;;;0.88;0.50;;;;;;;;;;5086524;28;20523;-82
2021/09/30 13:46:20;;;;;;;0.70;0.20;;;;;;;;;;5060929;28;20060;-80
2021/09/30 13:48:46;;;;;;;0.63;0.35;;;;;;;;;;5047915;28;20052;-80
2021/09/30 13:51:13;;;;;;;0.85;0.47;;;;;;;;;;5060879;28;20388;-79
2021/09/30 13:53:39;;;;;;;0.65;0.52;;;;;;;;;;5051835;28;20450;-80
2021/09/30 13:56:06;;;;;;;0.65;0.30;;;;;;;;;;5062280;28;20091;-80
2021/09/30 13:58:35;;;;;;;0.75;0.50;;;;;;;;;;5075014;28;20052;-82
2021/09/30 14:01:01;;;;;;;0.40;0.30;;;;;;;;;;5086938;28;20060;-81
2021/09/30 14:03:28;;;;;;;2.05;0.60;;;;;;;;;;5066314;28;20064;-82
2021/09/30 14:05:55;;;;;;;0.80;0.30;;;;;;;;;;5078617;28;20056;-82
2021/09/30 14:08:24;;;;;;;1.05;0.40;;;;;;;;;;5068601;28;20064;-82
2021/09/30 14:10:50;;;;;;;2.45;0.40;;;;;;;;;;5067496;28;20571;-81
2021/09/30 14:13:17;;;;;;;0.55;0.30;;;;;;;;;;5060904;28;20060;-82
2021/09/30 14:15:44;;;;;;;0.57;0.50;;;;;;;;;;5064907;28;20052;-83
2021/09/30 14:18:10;;;;;;;0.80;0.40;;;;;;;;;;5056277;28;20106;-81
2021/09/30 14:20:37;;;;;;;0.70;0.40;;;;;;;;;;5058899;28;20480;-81
2021/09/30 14:23:04;;;;;;;0.70;0.40;;;;;;;;;;5047660;28;20076;-80
2021/09/30 14:25:30;;;;;;;0.55;0.30;;;;;;;;;;5059508;28;20589;-82
2021/09/30 14:27:57;;;;;;;1.05;0.40;;;;;;;;;;5065172;28;20569;-81
2021/09/30 14:30:23;;;;;;;0.63;0.38;;;;;;;;;;5086780;28;20491;-81
2021/09/30 14:32:51;;;;;;;0.98;0.40;;;;;;;;;;5065300;28;20460;-79
2021/09/30 14:35:18;;;;;;;1.08;0.50;;;;;;;;;;5068870;28;20070;-79
2021/09/30 14:37:48;;;;;;;0.93;0.40;;;;;;;;;;5083025;28;20737;-81
2021/09/30 14:40:14;;;;;;;0.55;0.45;;;;;;;;;;5055897;28;20739;-81
2021/09/30 14:42:41;;;;;;;0.52;0.40;;;;;;;;;;5068923;28;20047;-80
2021/09/30 14:45:08;;;;;;;0.65;0.30;;;;;;;;;;5065639;28;20487;-81
2021/09/30 14:47:34;;;;;;;1.58;0.57;;;;;;;;;;5053771;28;20585;-81
2021/09/30 14:50:01;;;;;;;0.90;0.25;;;;;;;;;;5061297;28;20523;-82
2021/09/30 14:52:27;;;;;;;0.75;0.40;;;;;;;;;;5067277;28;20164;-83
2021/09/30 14:54:53;;;;;;;0.73;0.30;;;;;;;;;;5058294;28;20067;-82
2021/09/30 14:57:20;;;;;;;0.90;0.40;;;;;;;;;;5067113;28;20036;-81
2021/09/30 14:59:46;;;;;;;0.93;0.30;;;;;;;;;;5048578;28;20071;-81
2021/09/30 15:02:13;;;;;;;0.95;0.40;;;;;;;;;;5068877;28;20063;-83
2021/09/30 15:04:39;;;;;;;0.52;0.30;;;;;;;;;;5049596;28;20064;-79
2021/09/30 15:07:06;;;;;;;0.52;0.30;;;;;;;;;;5054509;28;20459;-81
2021/09/30 15:09:32;;;;;;;0.82;0.38;;;;;;;;;;5049227;28;20453;-81
2021/09/30 15:11:59;;;;;;;0.90;0.32;;;;;;;;;;5062886;28;20040;-80
2021/09/30 15:14:27;;;;;;;0.52;0.43;;;;;;;;;;5043639;28;20111;-82
2021/09/30 15:16:59;;;;;;;1.27;0.40;;;;;;;;;;5054276;28;20492;-80
2021/09/30 15:19:31;;;;;;;1.13;0.45;;;;;;;;;;5056188;28;20060;-81
2021/09/30 15:21:58;;;;;;;0.80;0.55;;;;;;;;;;5057683;28;20097;-80
2021/09/30 15:24:25;;;;;;;1.00;0.40;;;;;;;;;;5064607;28;20052;-81
2021/09/30 15:26:52;;;;;;;1.52;0.40;;;;;;;;;;5047016;28;20040;-81
2021/09/30 15:29:19;;;;;;;2.25;0.40;;;;;;;;;;5065888;28;20548;-81
2021/09/30 15:31:47;;;;;;;1.02;0.55;;;;;;;;;;5077811;28;20063;-80
2021/09/30 15:34:18;;;;;;;0.80;0.40;;;;;;;;;;5088208;28;20040;-80
2021/09/30 15:36:44;;;;;;;0.50;0.40;;;;;;;;;;5086071;28;20028;-80
2021/09/30 15:39:11;;;;;;;1.15;0.40;;;;;;;;;;5054849;28;20060;-83
2021/09/30 15:41:37;;;;;;;1.08;0.40;;;;;;;;;;5071416;28;20029;-83
2021/09/30 15:44:04;;;;;;;0.75;0.32;;;;;;;;;;5074351;28;20036;-81
2021/09/30 15:46:31;;;;;;;0.35;0.30;;;;;;;;;;5078194;28;20047;-83
2021/09/30 15:48:57;;;;;;;1.17;0.40;;;;;;;;;;5073579;28;20040;-83
2021/09/30 15:51:24;;;;;;;1.33;0.30;;;;;;;;;;5073840;28;20039;-84
2021/09/30 15:53:51;;;;;;;1.15;0.40;;;;;;;;;;5068466;28;20028;-85
2021/09/30 15:56:20;;;;;;;0.80;0.30;;;;;;;;;;5092353;28;20027;-85
2021/09/30 15:58:47;;;;;;;0.98;0.47;;;;;;;;;;5063121;28;20070;-85
2021/09/30 16:01:14;;;;;;;0.82;0.30;;;;;;;;;;5060147;28;20252;-85
2021/09/30 16:03:41;;;;;;;0.60;0.30;;;;;;;;;;5091363;28;20036;-84
2021/09/30 16:06:07;;;;;;;2.22;0.40;;;;;;;;;;5058992;28;20050;-83
2021/09/30 16:08:34;;;;;;;0.70;0.38;;;;;;;;;;5088670;28;20041;-84
2021/09/30 16:11:00;;;;;;;1.13;0.60;;;;;;;;;;5068952;28;20032;-84
2021/09/30 16:13:27;;;;;;;0.80;0.40;;;;;;;;;;5058062;28;20064;-86
2021/09/30 16:15:53;;;;;;;0.65;0.30;;;;;;;;;;5059121;28;20032;-85
2021/09/30 16:18:19;;;;;;;1.27;0.40;;;;;;;;;;5089165;28;20048;-86
2021/09/30 16:20:46;;;;;;;1.88;0.60;;;;;;;;;;5069013;28;20025;-86
2021/09/30 16:23:12;;;;;;;2.05;0.50;;;;;;;;;;5059833;28;22167;-84
2021/09/30 16:25:39;;;;;;;0.80;0.40;;;;;;;;;;5062628;28;20044;-84
2021/09/30 16:28:05;;;;;;;0.93;0.38;;;;;;;;;;5067124;28;20028;-84
2021/09/30 16:30:32;;;;;;;0.65;0.30;;;;;;;;;;5077902;28;20029;-85
2021/09/30 16:33:00;;;;;;;1.27;0.43;;;;;;;;;;5059041;28;20085;-86
2021/09/30 16:35:26;;;;;;;0.50;0.38;;;;;;;;;;5070258;28;20028;-85
2021/09/30 16:37:53;;;;;;;1.13;0.47;;;;;;;;;;5069092;28;20043;-82
2021/09/30 16:40:20;;;;;;;1.45;0.38;;;;;;;;;;5087657;28;20051;-82
2021/09/30 16:42:48;;;;;;;1.27;0.45;;;;;;;;;;5071930;28;20071;-83
2021/09/30 16:45:14;;;;;;;0.68;0.38;;;;;;;;;;5063225;28;20058;-83
2021/09/30 16:47:41;;;;;;;0.28;0.20;;;;;;;;;;5094344;28;20051;-84
2021/09/30 16:50:14;;;;;;;1.85;0.50;;;;;;;;;;5066417;28;20032;-85
2021/09/30 16:52:45;;;;;;;2.88;0.47;;;;;;;;;;5085169;28;20031;-85
2021/09/30 16:55:11;;;;;;;2.10;0.88;;;;;;;;;;5076122;28;20038;-86
2021/09/30 16:57:38;;;;;;;1.50;0.40;;;;;;;;;;5075287;28;20036;-82
2021/09/30 17:00:12;;;;;;;2.00;0.43;;;;;;;;;;5056961;28;20027;-82
2021/09/30 17:02:38;;;;;;;0.98;0.38;;;;;;;;;;5089333;28;20082;-82
2021/09/30 17:05:06;;;;;;;0.73;0.40;;;;;;;;;;5069655;28;20066;-82
2021/09/30 17:07:32;;;;;;;1.17;0.30;;;;;;;;;;5075559;28;20037;-82
2021/09/30 17:09:59;;;;;;;1.65;0.50;;;;;;;;;;5075103;28;20040;-82
2021/09/30 17:12:26;;;;;;;0.90;0.52;;;;;;;;;;5091935;28;20492;-83
2021/09/30 17:14:53;;;;;;;0.93;0.40;;;;;;;;;;5087961;28;20028;-82
2021/09/30 17:17:22;;;;;;;1.83;0.50;;;;;;;;;;5065303;28;20025;-80
2021/09/30 17:19:49;;;;;;;0.55;0.30;;;;;;;;;;5055022;28;20401;-81
2021/09/30 17:22:15;;;;;;;1.60;0.32;;;;;;;;;;5048012;28;20157;-82
2021/09/30 17:24:42;;;;;;;1.17;0.30;;;;;;;;;;5058156;28;20047;-82
2021/09/30 17:27:08;;;;;;;1.50;0.38;;;;;;;;;;5066890;28;20526;-82
2021/09/30 17:29:35;;;;;;;0.80;0.30;;;;;;;;;;5060463;28;20044;-81
2021/09/30 17:32:01;;;;;;;0.70;0.30;;;;;;;;;;5087472;28;20036;-81
2021/09/30 17:34:28;;;;;;;0.90;0.57;;;;;;;;;;5070613;28;20097;-81
2021/09/30 17:36:55;;;;;;;1.67;0.50;;;;;;;;;;5090101;28;20059;-81
2021/09/30 17:39:21;;;;;;;0.60;0.40;;;;;;;;;;5067180;28;20377;-81